Time;durP1;ratioP1;P1;durP2;ratioP2;P2;SDS_P1;SDS_P2;PMS_P1;PMS_P2;Temp;Humidity;BMP_temperature;BMP_pressure;BME280_temperature;BME280_humidity;BME280_pressure;Samples;Min_cycle;Max_cycle;Signal;HPM_P1;HPM_P2
2023/03/31 00:00:56;;;;;;;5.40;1.65;;;12.00;99.90;;;;;;5042861;28;20025;-43
2023/03/31 00:03:22;;;;;;;;;;;12.10;99.90;;;;;;5042655;28;20033;-43
2023/03/31 00:05:57;;;;;;;3.65;1.02;;;12.10;99.90;;;;;;5042605;28;19920;-42
2023/03/31 00:08:24;;;;;;;4.80;1.77;;;12.10;99.90;;;;;;5042029;28;20045;-43
2023/03/31 00:10:50;;;;;;;4.10;1.63;;;12.10;99.90;;;;;;5038675;28;20384;-43
2023/03/31 00:13:16;;;;;;;3.60;1.40;;;12.10;99.90;;;;;;5040798;28;20624;-42
2023/03/31 00:15:41;;;;;;;4.75;1.52;;;12.10;99.90;;;;;;5042513;28;20021;-42
2023/03/31 00:18:07;;;;;;;5.45;1.55;;;12.10;99.90;;;;;;5042130;28;20040;-42
2023/03/31 00:20:36;;;;;;;4.68;1.73;;;12.10;99.90;;;;;;5041949;28;20370;-42
2023/03/31 00:23:09;;;;;;;3.67;1.65;;;12.10;99.90;;;;;;5022077;28;20033;-42
2023/03/31 00:25:37;;;;;;;3.47;1.63;;;12.20;99.90;;;;;;5036373;28;20036;-42
2023/03/31 00:28:03;;;;;;;4.90;1.58;;;12.20;99.90;;;;;;5041904;28;20159;-42
2023/03/31 00:30:31;;;;;;;4.63;1.55;;;12.20;99.90;;;;;;5041688;28;20037;-42
2023/03/31 00:32:57;;;;;;;4.85;1.80;;;12.30;99.90;;;;;;5041703;28;20355;-44
2023/03/31 00:35:23;;;;;;;8.25;2.10;;;12.30;99.90;;;;;;5041496;28;20474;-43
2023/03/31 00:37:48;;;;;;;5.43;1.80;;;12.30;99.90;;;;;;5042371;28;20025;-43
2023/03/31 00:40:14;;;;;;;5.03;2.00;;;12.30;99.90;;;;;;5041329;28;20020;-43
2023/03/31 00:42:41;;;;;;;6.25;2.30;;;12.30;99.90;;;;;;5041613;28;20777;-43
2023/03/31 00:45:21;;;;;;;5.90;2.08;;;12.40;99.90;;;;;;5041485;28;20108;-42
2023/03/31 00:48:04;;;;;;;4.80;1.90;;;12.30;99.90;;;;;;5041132;28;20109;-43
2023/03/31 00:50:33;;;;;;;;;;;12.30;99.90;;;;;;5042203;28;20043;-43
2023/03/31 00:53:05;;;;;;;8.27;2.28;;;12.40;99.90;;;;;;5041873;28;19959;-42
2023/03/31 00:55:36;;;;;;;6.15;2.55;;;12.30;99.90;;;;;;5040830;28;20103;-42
2023/03/31 00:58:03;;;;;;;4.13;1.73;;;12.30;99.90;;;;;;5041795;28;20657;-43
2023/03/31 01:00:29;;;;;;;6.72;2.17;;;12.30;99.90;;;;;;5041182;28;20021;-43
2023/03/31 01:02:58;;;;;;;5.32;1.80;;;12.30;99.90;;;;;;5040439;28;20593;-42
2023/03/31 01:05:35;;;;;;;5.80;2.17;;;12.30;99.90;;;;;;5040599;28;20806;-43
2023/03/31 01:08:04;;;;;;;6.78;1.77;;;12.20;99.90;;;;;;5040118;28;20094;-43
2023/03/31 01:10:37;;;;;;;6.13;1.80;;;12.20;99.90;;;;;;5041144;28;20106;-42
2023/03/31 01:13:03;;;;;;;4.70;1.73;;;12.10;99.90;;;;;;5041123;28;20029;-43
2023/03/31 01:15:29;;;;;;;4.20;1.55;;;12.10;99.90;;;;;;5040631;28;20017;-42
2023/03/31 01:17:57;;;;;;;3.78;1.58;;;12.00;99.90;;;;;;5040952;28;20511;-43
2023/03/31 01:20:49;;;;;;;3.45;1.75;;;12.00;99.90;;;;;;5040642;28;20025;-42
2023/03/31 01:23:34;;;;;;;3.55;1.50;;;12.00;99.90;;;;;;5039156;28;20033;-43
2023/03/31 01:26:43;;;;;;;3.72;1.70;;;12.00;99.90;;;;;;5041096;28;20045;-42
2023/03/31 01:29:39;;;;;;;3.67;1.40;;;11.90;99.90;;;;;;5032646;28;20053;-42
2023/03/31 01:32:39;;;;;;;2.45;1.20;;;11.90;99.90;;;;;;5040202;28;20548;-42
2023/03/31 01:35:41;;;;;;;2.53;0.95;;;11.90;99.90;;;;;;5040609;28;20055;-46
2023/03/31 01:38:27;;;;;;;4.57;1.92;;;11.90;99.90;;;;;;5039882;28;20064;-43
2023/03/31 01:41:01;;;;;;;1.70;0.90;;;11.90;99.90;;;;;;5021688;28;20103;-42
2023/03/31 01:43:45;;;;;;;5.22;1.33;;;11.90;99.90;;;;;;5038118;28;20060;-43
2023/03/31 01:46:29;;;;;;;5.70;1.33;;;11.90;99.90;;;;;;5041003;28;20110;-42
2023/03/31 01:49:14;;;;;;;2.75;1.10;;;11.90;99.90;;;;;;5041602;28;20044;-42
2023/03/31 01:52:02;;;;;;;3.90;1.27;;;12.00;99.90;;;;;;5040699;28;20075;-44
2023/03/31 01:54:49;;;;;;;3.85;1.17;;;12.00;99.90;;;;;;5038356;28;20024;-43
2023/03/31 01:57:33;;;;;;;1.92;0.90;;;12.00;99.90;;;;;;5039610;28;20078;-43
2023/03/31 02:00:02;;;;;;;3.05;1.30;;;12.10;99.90;;;;;;5029501;28;20036;-42
2023/03/31 02:02:35;;;;;;;3.22;1.10;;;12.10;99.90;;;;;;5040398;28;20032;-43
2023/03/31 02:05:12;;;;;;;5.15;2.25;;;12.10;99.90;;;;;;5039886;28;20025;-43
2023/03/31 02:08:05;;;;;;;4.60;1.38;;;12.10;99.90;;;;;;5041284;28;20039;-42
2023/03/31 02:10:31;;;;;;;4.25;1.45;;;12.10;99.90;;;;;;5031368;28;20115;-42
2023/03/31 02:13:00;;;;;;;3.78;1.30;;;12.10;99.90;;;;;;5039836;28;20031;-43
2023/03/31 02:15:31;;;;;;;6.28;1.77;;;12.10;99.90;;;;;;5040046;28;20032;-43
2023/03/31 02:18:02;;;;;;;3.35;1.40;;;12.10;99.90;;;;;;5039581;28;20759;-43
2023/03/31 02:20:31;;;;;;;6.05;1.77;;;12.10;99.90;;;;;;5040388;28;20032;-43
2023/03/31 02:22:58;;;;;;;4.22;1.52;;;12.10;99.90;;;;;;5040692;28;20029;-43
2023/03/31 02:25:49;;;;;;;4.93;1.67;;;12.10;99.90;;;;;;5039628;28;20024;-42
2023/03/31 02:28:20;;;;;;;4.20;1.40;;;12.10;99.90;;;;;;5040524;28;20033;-42
2023/03/31 02:31:04;;;;;;;3.88;1.15;;;12.10;99.90;;;;;;5041025;28;20017;-42
2023/03/31 02:33:30;;;;;;;5.45;1.42;;;12.10;99.90;;;;;;5040289;28;20036;-43
2023/03/31 02:36:00;;;;;;;3.00;1.25;;;12.10;99.90;;;;;;5042837;28;20058;-43
2023/03/31 02:38:27;;;;;;;4.95;1.65;;;12.20;99.90;;;;;;5043741;28;20025;-43
2023/03/31 02:40:55;;;;;;;3.70;1.40;;;12.20;99.90;;;;;;5044003;28;20063;-42
2023/03/31 02:43:21;;;;;;;8.65;2.47;;;12.20;99.90;;;;;;5043497;28;20021;-44
2023/03/31 02:45:49;;;;;;;6.20;1.92;;;12.20;99.90;;;;;;5043495;28;20031;-43
2023/03/31 02:48:27;;;;;;;5.97;2.08;;;12.20;99.90;;;;;;5042983;28;20059;-43
2023/03/31 02:51:15;;;;;;;5.85;1.73;;;12.20;99.90;;;;;;5043870;28;20093;-41
2023/03/31 02:54:05;;;;;;;5.00;1.60;;;12.30;99.90;;;;;;5043241;28;20031;-42
2023/03/31 02:57:08;;;;;;;5.60;1.55;;;12.20;99.90;;;;;;5043941;28;20021;-42
2023/03/31 02:59:40;;;;;;;4.20;1.38;;;12.20;99.90;;;;;;5044707;28;20062;-42
2023/03/31 03:02:53;;;;;;;5.72;2.00;;;12.10;99.90;;;;;;5042424;28;20037;-42
2023/03/31 03:05:33;;;;;;;;;;;12.10;99.90;;;;;;5042985;28;20061;-43
2023/03/31 03:08:22;;;;;;;4.40;1.88;;;12.00;99.90;;;;;;5042262;28;20581;-44
2023/03/31 03:11:17;;;;;;;4.75;1.42;;;12.00;99.90;;;;;;5043307;28;20029;-43
2023/03/31 03:13:55;;;;;;;2.78;1.00;;;11.90;99.90;;;;;;5023508;28;20037;-43
2023/03/31 03:16:31;;;;;;;2.65;0.95;;;11.90;99.90;;;;;;5038672;28;20025;-43
2023/03/31 03:19:03;;;;;;;4.20;1.35;;;11.90;99.90;;;;;;5023890;28;20457;-43
2023/03/31 03:21:29;;;;;;;3.78;1.30;;;11.80;99.90;;;;;;5038529;28;20060;-43
2023/03/31 03:23:55;;;;;;;4.97;2.00;;;11.90;99.90;;;;;;5043433;28;20036;-43
2023/03/31 03:26:23;;;;;;;4.88;1.27;;;11.80;99.90;;;;;;5042365;28;20067;-43
2023/03/31 03:28:52;;;;;;;5.28;1.48;;;11.80;99.90;;;;;;5042697;28;20048;-43
2023/03/31 03:31:19;;;;;;;6.07;1.30;;;11.80;99.90;;;;;;5042717;28;20021;-43
2023/03/31 03:33:45;;;;;;;3.20;1.00;;;11.90;99.90;;;;;;5043700;28;20080;-43
2023/03/31 03:36:14;;;;;;;3.38;1.30;;;11.90;99.90;;;;;;5041882;28;20480;-43
2023/03/31 03:38:39;;;;;;;3.60;1.13;;;11.90;99.90;;;;;;5043054;28;20106;-43
2023/03/31 03:41:09;;;;;;;3.08;1.08;;;11.90;99.90;;;;;;5042424;28;20028;-42
2023/03/31 03:43:34;;;;;;;4.57;1.25;;;11.90;99.90;;;;;;5042345;28;20021;-43
2023/03/31 03:46:00;;;;;;;4.18;1.13;;;11.90;99.90;;;;;;5042399;28;20523;-42
2023/03/31 03:48:26;;;;;;;2.50;0.82;;;11.90;99.90;;;;;;5041697;28;20152;-43
2023/03/31 03:50:53;;;;;;;3.45;1.02;;;11.90;99.90;;;;;;5041562;28;20028;-42
2023/03/31 03:53:18;;;;;;;4.30;1.10;;;11.80;99.90;;;;;;5042550;28;20639;-43
2023/03/31 03:55:53;;;;;;;3.20;1.20;;;11.80;99.90;;;;;;5043474;28;20469;-42
2023/03/31 03:58:18;;;;;;;4.15;1.20;;;11.80;99.90;;;;;;5040927;28;20035;-43
2023/03/31 04:00:45;;;;;;;3.33;1.60;;;11.80;99.90;;;;;;5042875;28;20028;-42
2023/03/31 04:03:11;;;;;;;4.32;1.75;;;11.80;99.90;;;;;;5041755;28;20039;-42
2023/03/31 04:05:37;;;;;;;2.60;0.98;;;11.80;99.90;;;;;;5042168;28;20082;-43
2023/03/31 04:08:04;;;;;;;4.20;1.50;;;11.80;99.90;;;;;;5041836;28;20224;-44
2023/03/31 04:10:30;;;;;;;4.18;1.95;;;11.80;99.90;;;;;;5041679;28;20208;-43
2023/03/31 04:12:56;;;;;;;4.45;1.38;;;11.80;99.90;;;;;;5043039;28;20770;-42
2023/03/31 04:15:21;;;;;;;2.83;1.13;;;11.80;99.90;;;;;;5042007;28;20083;-43
2023/03/31 04:17:49;;;;;;;5.28;1.30;;;11.80;99.90;;;;;;5041471;28;20128;-42
2023/03/31 04:20:16;;;;;;;2.60;1.38;;;11.80;99.90;;;;;;5042067;28;20025;-43
2023/03/31 04:22:45;;;;;;;8.30;1.90;;;11.80;99.90;;;;;;5042353;28;20086;-42
2023/03/31 04:25:15;;;;;;;6.45;1.98;;;11.80;99.90;;;;;;5041325;28;20832;-43
2023/03/31 04:27:53;;;;;;;3.58;1.48;;;11.80;99.90;;;;;;5041886;28;20037;-43
2023/03/31 04:30:23;;;;;;;5.32;1.55;;;11.70;99.90;;;;;;5041833;28;20040;-42
2023/03/31 04:32:54;;;;;;;7.75;1.95;;;11.70;99.90;;;;;;5041337;28;20035;-43
2023/03/31 04:35:22;;;;;;;7.35;1.80;;;11.70;99.90;;;;;;5042041;28;20029;-42
2023/03/31 04:37:57;;;;;;;5.20;1.30;;;11.70;99.90;;;;;;5042666;28;20112;-43
2023/03/31 04:40:24;;;;;;;7.00;1.48;;;11.70;99.90;;;;;;5030620;28;20373;-43
2023/03/31 04:42:50;;;;;;;5.72;2.13;;;11.60;99.90;;;;;;5041771;28;20078;-43
2023/03/31 04:45:15;;;;;;;6.50;1.60;;;11.60;99.90;;;;;;5041501;28;20107;-42
2023/03/31 04:47:42;;;;;;;6.07;1.70;;;11.60;99.90;;;;;;5040706;28;20824;-42
2023/03/31 04:50:09;;;;;;;3.53;1.55;;;11.60;99.90;;;;;;5041050;28;20036;-43
2023/03/31 04:52:35;;;;;;;4.90;1.60;;;11.50;99.90;;;;;;5042095;28;20064;-43
2023/03/31 04:55:00;;;;;;;4.68;1.60;;;11.60;99.90;;;;;;5040518;28;20114;-43
2023/03/31 04:57:26;;;;;;;11.57;2.33;;;11.50;99.90;;;;;;5040972;28;20029;-43
2023/03/31 04:59:51;;;;;;;6.88;2.38;;;11.50;99.90;;;;;;5040822;28;20032;-43
2023/03/31 05:02:22;;;;;;;6.03;1.80;;;11.50;99.90;;;;;;5041303;28;20029;-44
2023/03/31 05:04:48;;;;;;;7.55;1.52;;;11.50;99.90;;;;;;5041470;28;20543;-43
2023/03/31 05:07:14;;;;;;;5.18;1.70;;;11.50;99.90;;;;;;5040268;28;20103;-43
2023/03/31 05:09:42;;;;;;;3.65;1.35;;;11.50;99.90;;;;;;5041311;28;20029;-43
2023/03/31 05:12:08;;;;;;;4.90;1.92;;;11.50;99.90;;;;;;5040902;28;20032;-43
2023/03/31 05:14:33;;;;;;;3.83;1.63;;;11.50;99.90;;;;;;5040104;28;20021;-43
2023/03/31 05:16:59;;;;;;;5.15;1.92;;;11.50;99.90;;;;;;5040914;28;20487;-43
2023/03/31 05:19:24;;;;;;;9.98;1.92;;;11.50;99.90;;;;;;5041078;28;20472;-43
2023/03/31 05:21:50;;;;;;;7.43;1.90;;;11.50;99.90;;;;;;5040640;28;20072;-42
2023/03/31 05:24:16;;;;;;;3.35;1.30;;;11.50;99.90;;;;;;5040115;28;20039;-42
2023/03/31 05:26:46;;;;;;;5.68;1.67;;;11.50;99.90;;;;;;5041333;28;20111;-45
2023/03/31 05:29:12;;;;;;;6.28;1.55;;;11.50;99.90;;;;;;5039431;28;20033;-44
2023/03/31 05:31:37;;;;;;;5.22;1.63;;;11.50;99.90;;;;;;5040716;28;20265;-43
2023/03/31 05:34:03;;;;;;;5.22;2.47;;;11.50;99.90;;;;;;5041069;28;20021;-43
2023/03/31 05:36:28;;;;;;;4.80;1.60;;;11.50;99.90;;;;;;5040568;28;20100;-44
2023/03/31 05:38:54;;;;;;;5.13;1.90;;;11.50;99.90;;;;;;5039103;28;20124;-43
2023/03/31 05:41:20;;;;;;;3.38;1.33;;;11.50;99.90;;;;;;5040409;28;20033;-43
2023/03/31 05:43:47;;;;;;;6.80;1.70;;;11.50;99.90;;;;;;5038114;28;20029;-42
2023/03/31 05:46:17;;;;;;;6.60;1.60;;;11.50;99.90;;;;;;5039013;28;20511;-43
2023/03/31 05:48:45;;;;;;;4.53;1.40;;;11.40;99.90;;;;;;5039803;28;20033;-43
2023/03/31 05:51:11;;;;;;;4.22;1.50;;;11.50;99.90;;;;;;5038964;28;20021;-43
2023/03/31 05:53:36;;;;;;;3.40;1.30;;;11.40;99.90;;;;;;5039451;28;20032;-43
2023/03/31 05:56:05;;;;;;;3.35;1.40;;;11.50;99.90;;;;;;5039042;28;20025;-42
2023/03/31 05:58:34;;;;;;;4.45;1.38;;;11.50;99.90;;;;;;5040224;28;20110;-42
2023/03/31 06:01:12;;;;;;;4.22;1.70;;;11.50;99.90;;;;;;5039700;28;20031;-40
2023/03/31 06:03:42;;;;;;;5.55;1.60;;;11.50;99.90;;;;;;5040297;28;20131;-43
2023/03/31 06:06:11;;;;;;;6.55;2.50;;;11.50;99.90;;;;;;5039786;28;20194;-42
2023/03/31 06:08:37;;;;;;;5.30;2.00;;;11.60;99.90;;;;;;5040266;28;20052;-42
2023/03/31 06:11:09;;;;;;;3.53;1.70;;;11.50;99.90;;;;;;5038227;28;20757;-43
2023/03/31 06:13:36;;;;;;;3.33;1.48;;;11.50;99.90;;;;;;5039982;28;20032;-43
2023/03/31 06:16:02;;;;;;;5.22;2.03;;;11.60;99.90;;;;;;5039944;28;20032;-43
2023/03/31 06:18:30;;;;;;;5.22;1.75;;;11.60;99.90;;;;;;5039369;28;20465;-42
2023/03/31 06:20:56;;;;;;;5.53;1.40;;;11.60;99.90;;;;;;5040062;28;20029;-43
2023/03/31 06:23:23;;;;;;;5.90;1.40;;;11.60;99.90;;;;;;5039164;28;20642;-42
2023/03/31 06:25:49;;;;;;;5.07;1.50;;;11.60;99.90;;;;;;5039101;28;20029;-43
2023/03/31 06:28:16;;;;;;;3.13;1.40;;;11.70;99.90;;;;;;5039291;28;20032;-43
2023/03/31 06:30:42;;;;;;;4.25;1.65;;;11.70;99.90;;;;;;5040739;28;20304;-43
2023/03/31 06:33:07;;;;;;;2.50;1.10;;;11.70;99.90;;;;;;5039527;28;20559;-42
2023/03/31 06:35:37;;;;;;;3.67;1.15;;;11.80;99.90;;;;;;5040735;28;20025;-43
2023/03/31 06:38:02;;;;;;;2.50;1.05;;;11.80;99.90;;;;;;5039527;28;20029;-43
2023/03/31 06:40:28;;;;;;;5.55;2.00;;;11.80;99.90;;;;;;5026067;28;20446;-43
2023/03/31 06:42:54;;;;;;;4.13;1.60;;;11.80;99.90;;;;;;5026926;28;20036;-43
2023/03/31 06:45:20;;;;;;;6.68;1.80;;;11.90;99.90;;;;;;5025843;28;20021;-43
2023/03/31 06:47:45;;;;;;;4.90;1.92;;;11.90;99.90;;;;;;5026534;28;20060;-43
2023/03/31 06:50:11;;;;;;;4.15;1.27;;;11.90;99.90;;;;;;5026216;28;20107;-43
2023/03/31 06:52:36;;;;;;;4.05;1.45;;;11.90;99.90;;;;;;5026926;28;20071;-45
2023/03/31 06:55:03;;;;;;;4.55;1.33;;;11.90;99.90;;;;;;5025408;28;20433;-43
2023/03/31 06:57:31;;;;;;;4.45;1.08;;;12.00;99.90;;;;;;5026373;28;20055;-43
2023/03/31 06:59:57;;;;;;;3.88;0.90;;;12.00;99.90;;;;;;5025166;28;20033;-43
2023/03/31 07:02:22;;;;;;;2.70;1.00;;;12.00;99.90;;;;;;5026480;28;20025;-43
2023/03/31 07:04:48;;;;;;;4.60;2.15;;;12.00;99.90;;;;;;5026492;28;20538;-46
2023/03/31 07:07:13;;;;;;;3.25;0.90;;;12.00;99.90;;;;;;5025839;28;21478;-43
2023/03/31 07:09:39;;;;;;;3.97;1.20;;;12.10;99.90;;;;;;5027322;28;20746;-44
2023/03/31 07:12:05;;;;;;;4.25;1.02;;;12.00;99.90;;;;;;5027468;28;20480;-43
2023/03/31 07:14:31;;;;;;;3.40;1.02;;;12.00;99.90;;;;;;5027083;28;20385;-43
2023/03/31 07:16:57;;;;;;;1.88;0.85;;;12.00;99.90;;;;;;5027938;28;20129;-43
2023/03/31 07:19:22;;;;;;;3.35;1.00;;;11.90;99.90;;;;;;5026686;28;20067;-42
2023/03/31 07:21:49;;;;;;;2.72;1.08;;;11.90;99.90;;;;;;5026179;28;20489;-42
2023/03/31 07:24:14;;;;;;;1.77;1.02;;;11.90;99.90;;;;;;5029963;28;20056;-42
2023/03/31 07:26:40;;;;;;;1.08;0.60;;;11.90;99.90;;;;;;5029786;28;20116;-42
2023/03/31 07:29:06;;;;;;;1.20;0.60;;;11.90;99.90;;;;;;5028340;28;20159;-42
2023/03/31 07:31:31;;;;;;;2.55;0.90;;;11.90;99.90;;;;;;5029954;28;20024;-41
2023/03/31 07:33:57;;;;;;;2.80;0.70;;;11.90;99.90;;;;;;5028629;28;21535;-42
2023/03/31 07:36:26;;;;;;;1.58;0.90;;;11.90;99.90;;;;;;5028660;28;20697;-42
2023/03/31 07:38:51;;;;;;;1.10;0.75;;;11.90;99.90;;;;;;5030126;28;20158;-42
2023/03/31 07:41:21;;;;;;;2.55;1.10;;;11.90;99.90;;;;;;5029284;28;20044;-43
2023/03/31 07:43:47;;;;;;;4.10;1.88;;;11.90;99.90;;;;;;5028158;28;20444;-43
2023/03/31 07:46:24;;;;;;;1.35;0.90;;;11.90;99.90;;;;;;5027745;28;20053;-43
2023/03/31 07:48:51;;;;;;;2.63;0.93;;;11.90;99.90;;;;;;5029136;28;20826;-44
2023/03/31 07:51:20;;;;;;;2.13;0.90;;;11.90;99.90;;;;;;5030060;28;20029;-43
2023/03/31 07:53:48;;;;;;;1.65;1.00;;;11.90;99.90;;;;;;5029777;28;20179;-42
2023/03/31 07:56:15;;;;;;;2.35;0.93;;;11.90;99.90;;;;;;5029146;28;20380;-42
2023/03/31 07:58:41;;;;;;;1.83;0.85;;;11.90;99.90;;;;;;5029416;28;20036;-43
2023/03/31 08:01:07;;;;;;;2.30;1.00;;;12.00;99.90;;;;;;5029894;28;20155;-42
2023/03/31 08:03:33;;;;;;;2.15;0.90;;;12.00;99.90;;;;;;5029990;28;20040;-42
2023/03/31 08:05:59;;;;;;;1.67;0.85;;;12.10;99.90;;;;;;5029009;28;20032;-40
2023/03/31 08:08:25;;;;;;;1.52;1.02;;;12.10;99.90;;;;;;5029619;28;20044;-42
2023/03/31 08:10:51;;;;;;;2.50;1.00;;;12.10;99.90;;;;;;5028498;28;20024;-43
2023/03/31 08:13:16;;;;;;;2.20;1.17;;;12.10;99.90;;;;;;5029720;28;20036;-42
2023/03/31 08:15:42;;;;;;;2.05;0.98;;;12.10;99.90;;;;;;5029774;28;20021;-42
2023/03/31 08:18:07;;;;;;;2.05;1.15;;;12.10;99.90;;;;;;5028275;28;20033;-42
2023/03/31 08:20:33;;;;;;;3.47;0.93;;;12.10;99.90;;;;;;5028907;28;20036;-42
2023/03/31 08:22:59;;;;;;;3.17;1.25;;;12.20;99.90;;;;;;5029667;28;20043;-42
2023/03/31 08:25:24;;;;;;;2.65;1.20;;;12.20;99.90;;;;;;5027011;28;20041;-42
2023/03/31 08:27:50;;;;;;;2.25;1.00;;;12.20;99.90;;;;;;5027795;28;20033;-43
2023/03/31 08:30:17;;;;;;;4.10;1.67;;;12.20;99.90;;;;;;5028115;28;20721;-43
2023/03/31 08:32:43;;;;;;;1.92;1.10;;;12.20;99.90;;;;;;5028503;28;20769;-43
2023/03/31 08:35:09;;;;;;;5.70;1.80;;;12.20;99.90;;;;;;5027465;28;20025;-43
2023/03/31 08:37:36;;;;;;;3.88;1.60;;;12.30;99.90;;;;;;5030202;28;20029;-42
2023/03/31 08:40:04;;;;;;;3.50;1.27;;;12.30;99.90;;;;;;5027978;28;20040;-43
2023/03/31 08:42:47;;;;;;;5.18;3.22;;;12.40;99.90;;;;;;5028638;28;20029;-43
2023/03/31 08:45:22;;;;;;;6.40;1.90;;;12.40;99.90;;;;;;5027026;28;20029;-42
2023/03/31 08:47:52;;;;;;;4.95;1.58;;;12.50;99.90;;;;;;5029039;28;20055;-42
2023/03/31 08:50:26;;;;;;;3.95;1.40;;;12.60;99.90;;;;;;5028484;28;21368;-43
2023/03/31 08:53:02;;;;;;;5.80;1.75;;;12.70;99.90;;;;;;5027373;28;20118;-43
2023/03/31 08:55:51;;;;;;;5.82;1.55;;;12.80;99.90;;;;;;5028235;28;20025;-42
2023/03/31 08:58:26;;;;;;;3.63;1.63;;;12.80;99.90;;;;;;5027566;28;20147;-42
2023/03/31 09:01:24;;;;;;;5.55;2.13;;;12.90;99.90;;;;;;5026715;28;20198;-42
2023/03/31 09:04:16;;;;;;;4.30;1.60;;;13.00;99.90;;;;;;5026749;28;20056;-42
2023/03/31 09:07:01;;;;;;;6.22;1.88;;;13.10;99.90;;;;;;5027607;28;21293;-42
2023/03/31 09:10:14;;;;;;;8.10;2.10;;;13.10;99.90;;;;;;5028345;28;20072;-42
2023/03/31 09:12:57;;;;;;;7.50;2.08;;;13.20;99.90;;;;;;5002821;28;20577;-45
2023/03/31 09:15:43;;;;;;;4.78;1.95;;;13.20;99.90;;;;;;5028100;28;20037;-43
2023/03/31 09:18:22;;;;;;;5.75;2.25;;;13.20;99.90;;;;;;5027989;28;20468;-43
2023/03/31 09:20:51;;;;;;;8.63;2.08;;;13.20;99.90;;;;;;5027672;28;20041;-43
2023/03/31 09:23:45;;;;;;;4.90;1.90;;;13.20;99.90;;;;;;5027187;28;20091;-43
2023/03/31 09:26:21;;;;;;;7.05;2.13;;;13.20;99.90;;;;;;5026329;28;20470;-43
2023/03/31 09:28:47;;;;;;;6.38;2.08;;;13.30;99.90;;;;;;5027595;28;20037;-42
2023/03/31 09:31:16;;;;;;;4.93;1.77;;;13.30;99.90;;;;;;5028673;28;20036;-42
2023/03/31 09:33:45;;;;;;;6.65;2.10;;;13.40;99.90;;;;;;5027784;28;20043;-42
2023/03/31 09:36:16;;;;;;;7.03;1.90;;;13.40;99.90;;;;;;5026100;28;20036;-43
2023/03/31 09:38:44;;;;;;;6.72;2.10;;;13.50;99.90;;;;;;5027985;28;20033;-43
2023/03/31 09:41:11;;;;;;;8.00;2.20;;;13.50;99.90;;;;;;5026795;28;20392;-43
2023/03/31 09:43:40;;;;;;;8.98;2.72;;;13.60;99.90;;;;;;5028219;28;20029;-42
2023/03/31 09:46:16;;;;;;;7.95;2.33;;;13.60;99.90;;;;;;5026124;28;20067;-42
2023/03/31 09:49:04;;;;;;;8.75;2.42;;;13.60;99.90;;;;;;5030190;28;20032;-44
2023/03/31 09:51:36;;;;;;;8.68;2.45;;;13.70;99.90;;;;;;5041493;28;20056;-43
2023/03/31 09:54:55;;;;;;;7.88;2.47;;;13.70;99.90;;;;;;5041121;28;20047;-42
2023/03/31 09:57:28;;;;;;;8.60;2.97;;;13.70;99.90;;;;;;5016625;28;20043;-43
2023/03/31 10:00:05;;;;;;;9.57;2.80;;;13.70;99.90;;;;;;5037033;28;20172;-43
2023/03/31 10:02:36;;;;;;;8.68;2.58;;;13.70;99.90;;;;;;5040749;28;20032;-43
2023/03/31 10:05:03;;;;;;;7.55;2.60;;;13.80;99.90;;;;;;5040268;28;20044;-43
2023/03/31 10:07:30;;;;;;;8.32;2.95;;;13.80;99.90;;;;;;5020813;28;20045;-43
2023/03/31 10:09:56;;;;;;;8.45;2.45;;;13.80;99.90;;;;;;5034272;28;20427;-42
2023/03/31 10:12:26;;;;;;;10.45;2.67;;;13.80;99.90;;;;;;5040254;28;20563;-42
2023/03/31 10:15:00;;;;;;;11.10;3.15;;;13.70;99.90;;;;;;5039705;28;20025;-42
2023/03/31 10:17:27;;;;;;;10.90;2.83;;;13.60;99.90;;;;;;5039247;28;20078;-43
2023/03/31 10:20:07;;;;;;;10.27;2.88;;;13.60;99.90;;;;;;5040148;28;20503;-43
2023/03/31 10:22:43;;;;;;;9.05;2.47;;;13.60;99.90;;;;;;5040157;28;20653;-42
2023/03/31 10:25:23;;;;;;;9.68;2.75;;;13.60;99.90;;;;;;5038364;28;20025;-43
2023/03/31 10:27:52;;;;;;;10.82;3.15;;;13.60;99.90;;;;;;5040473;28;20045;-43
2023/03/31 10:30:24;;;;;;;8.23;2.00;;;13.60;99.90;;;;;;5039102;28;20017;-43
2023/03/31 10:32:51;;;;;;;11.07;3.10;;;13.60;99.90;;;;;;5040003;28;20392;-43
2023/03/31 10:35:31;;;;;;;10.10;2.00;;;13.60;99.90;;;;;;5039803;28;20630;-43
2023/03/31 10:38:02;;;;;;;7.30;2.00;;;13.50;99.90;;;;;;5039122;28;20061;-43
2023/03/31 10:40:31;;;;;;;8.85;2.13;;;13.60;99.90;;;;;;5039777;28;20365;-43
2023/03/31 10:43:08;;;;;;;8.63;2.40;;;13.70;99.90;;;;;;5040391;28;20147;-44
2023/03/31 10:45:43;;;;;;;11.40;3.40;;;13.80;99.90;;;;;;5039613;28;20081;-44
2023/03/31 10:48:40;;;;;;;8.93;2.30;;;13.90;99.90;;;;;;5039858;28;20048;-43
2023/03/31 10:51:34;;;;;;;8.18;2.30;;;14.10;99.90;;;;;;5034944;28;20389;-44
2023/03/31 10:54:03;;;;;;;5.50;2.00;;;14.20;99.90;;;;;;5039695;28;20041;-42
2023/03/31 10:56:53;;;;;;;5.82;1.80;;;14.20;99.90;;;;;;5042034;28;20032;-42
2023/03/31 10:59:35;;;;;;;9.48;1.98;;;14.30;99.90;;;;;;5023778;28;20039;-45
2023/03/31 11:02:36;;;;;;;8.05;1.92;;;14.30;99.90;;;;;;5041095;28;20036;-43
2023/03/31 11:05:14;;;;;;;8.18;2.20;;;14.50;99.90;;;;;;5044361;28;20052;-42
2023/03/31 11:08:00;;;;;;;8.45;2.90;;;14.70;99.90;;;;;;5040322;28;20029;-43
2023/03/31 11:10:41;;;;;;;8.80;2.42;;;14.80;99.90;;;;;;5042849;28;20033;-43
2023/03/31 11:13:17;;;;;;;5.85;1.80;;;14.80;99.90;;;;;;5039999;28;20024;-43
2023/03/31 11:16:12;;;;;;;6.78;1.73;;;14.70;99.90;;;;;;5042993;28;20025;-42
2023/03/31 11:18:44;;;;;;;7.47;2.05;;;14.70;99.90;;;;;;5033340;28;20501;-42
2023/03/31 11:21:46;;;;;;;7.75;2.33;;;14.80;99.90;;;;;;5042509;28;20937;-43
2023/03/31 11:24:26;;;;;;;7.65;1.80;;;14.70;99.90;;;;;;5036573;28;20094;-43
2023/03/31 11:26:55;;;;;;;6.28;2.05;;;14.70;99.90;;;;;;5043934;28;20076;-43
2023/03/31 11:30:02;;;;;;;6.05;2.22;;;14.70;99.90;;;;;;5042973;28;20032;-43
2023/03/31 11:32:28;;;;;;;8.07;2.20;;;14.80;99.90;;;;;;5023327;28;20125;-42
2023/03/31 11:34:59;;;;;;;7.65;2.13;;;14.80;99.90;;;;;;5043546;28;20059;-42
2023/03/31 11:37:48;;;;;;;6.63;2.28;;;14.90;99.90;;;;;;5043766;28;20112;-42
2023/03/31 11:40:34;;;;;;;6.32;2.10;;;14.80;99.90;;;;;;5043283;28;20060;-43
2023/03/31 11:43:03;;;;;;;7.68;2.15;;;14.80;99.90;;;;;;5042580;28;20025;-43
2023/03/31 11:45:38;;;;;;;6.28;1.90;;;14.90;99.90;;;;;;5043481;28;20036;-43
2023/03/31 11:48:13;;;;;;;3.88;1.67;;;15.00;99.90;;;;;;5041278;28;20056;-44
2023/03/31 11:50:44;;;;;;;5.32;1.80;;;15.00;99.90;;;;;;5042757;28;20120;-43
2023/03/31 11:53:19;;;;;;;8.13;1.83;;;15.20;99.90;;;;;;5042119;28;20033;-43
2023/03/31 11:55:48;;;;;;;7.65;2.38;;;15.30;99.90;;;;;;5042776;28;20025;-43
2023/03/31 11:58:30;;;;;;;7.38;2.25;;;15.40;99.90;;;;;;5041663;28;20740;-44
2023/03/31 12:01:38;;;;;;;9.50;2.10;;;15.40;99.90;;;;;;5023886;28;20033;-43
2023/03/31 12:04:29;;;;;;;5.95;2.13;;;15.40;99.90;;;;;;5036688;28;20037;-43
2023/03/31 12:07:01;;;;;;;6.00;1.83;;;15.40;99.90;;;;;;5039441;28;20157;-43
2023/03/31 12:09:50;;;;;;;6.97;2.00;;;15.30;99.90;;;;;;5041274;28;20110;-43
2023/03/31 12:12:23;;;;;;;9.23;2.50;;;15.10;99.90;;;;;;5042451;28;20824;-43
2023/03/31 12:14:58;;;;;;;9.38;2.10;;;15.10;99.90;;;;;;5041754;28;20021;-43
2023/03/31 12:17:36;;;;;;;8.00;2.00;;;15.00;99.90;;;;;;5042083;28;20507;-43
2023/03/31 12:20:16;;;;;;;7.47;2.40;;;14.90;99.90;;;;;;5041559;28;20075;-43
2023/03/31 12:22:47;;;;;;;6.43;2.10;;;14.80;99.90;;;;;;5043765;28;20107;-43
2023/03/31 12:25:15;;;;;;;7.95;2.80;;;14.80;99.90;;;;;;5040986;28;20020;-43
2023/03/31 12:27:55;;;;;;;7.00;2.10;;;14.70;99.90;;;;;;5042005;28;20044;-43
2023/03/31 12:30:41;;;;;;;5.60;1.90;;;14.70;99.90;;;;;;5038181;28;20128;-43
2023/03/31 12:33:33;;;;;;;12.60;2.03;;;14.60;99.90;;;;;;5040415;28;20021;-44
2023/03/31 12:36:37;;;;;;;10.15;3.10;;;14.50;99.90;;;;;;5040245;28;20033;-44
2023/03/31 12:39:36;;;;;;;7.47;2.67;;;14.50;99.90;;;;;;5040017;28;20032;-42
2023/03/31 12:42:43;;;;;;;9.65;2.40;;;14.40;99.90;;;;;;5042079;28;20796;-43
2023/03/31 12:45:25;;;;;;;7.55;2.08;;;14.20;99.90;;;;;;5033161;28;20041;-43
2023/03/31 12:48:20;;;;;;;9.48;2.60;;;14.20;99.90;;;;;;5022708;28;20060;-43
2023/03/31 12:51:13;;;;;;;7.78;1.92;;;14.20;99.90;;;;;;5040842;28;20379;-44
2023/03/31 12:54:28;;;;;;;7.53;2.10;;;14.20;99.90;;;;;;5041827;28;20059;-43
2023/03/31 12:57:00;;;;;;;4.43;1.55;;;14.10;99.90;;;;;;5017427;28;20033;-43
2023/03/31 12:59:34;;;;;;;6.30;1.77;;;14.10;99.90;;;;;;5018319;28;20406;-43
2023/03/31 13:02:09;;;;;;;6.57;2.20;;;14.00;99.90;;;;;;5033664;28;20033;-43
2023/03/31 13:04:36;;;;;;;6.75;2.00;;;14.00;99.90;;;;;;5042327;28;20499;-43
2023/03/31 13:07:03;;;;;;;7.07;1.48;;;14.00;99.90;;;;;;5040600;28;20035;-44
2023/03/31 13:09:51;;;;;;;8.00;1.85;;;14.10;99.90;;;;;;5041541;28;20052;-42
2023/03/31 13:12:24;;;;;;;4.90;1.60;;;14.10;99.90;;;;;;5040694;28;20462;-44
2023/03/31 13:14:53;;;;;;;5.85;1.77;;;14.30;99.90;;;;;;5041957;28;20033;-44
2023/03/31 13:17:29;;;;;;;7.90;1.80;;;14.20;99.90;;;;;;5040092;28;20043;-43
2023/03/31 13:20:16;;;;;;;5.43;1.70;;;14.20;99.90;;;;;;5041021;28;20021;-43